createdAt,value
2019-03-16T00:00:33.194Z,994.54
2019-03-16T00:01:33.208Z,994.57
2019-03-16T00:02:33.223Z,994.66
2019-03-16T00:03:33.245Z,994.7
2019-03-16T00:04:33.255Z,994.7
2019-03-16T00:05:33.270Z,994.76
2019-03-16T00:06:33.286Z,994.82
2019-03-16T00:07:33.441Z,994.57
2019-03-16T00:08:33.317Z,994.75
2019-03-16T00:09:33.331Z,994.76
2019-03-16T00:10:33.348Z,994.85
2019-03-16T00:11:33.365Z,994.83
2019-03-16T00:12:33.379Z,994.99
2019-03-16T00:13:33.394Z,994.91
2019-03-16T00:14:33.409Z,995.01
2019-03-16T00:15:33.425Z,995.19
2019-03-16T00:16:33.441Z,995.12
2019-03-16T00:17:33.456Z,994.84
2019-03-16T00:18:33.471Z,994.96
2019-03-16T00:19:33.487Z,994.9
2019-03-16T00:20:33.502Z,994.99
2019-03-16T00:22:33.533Z,995
2019-03-16T00:23:33.548Z,995.06
2019-03-16T00:24:33.563Z,995.04
2019-03-16T00:25:33.578Z,994.93
2019-03-16T00:26:33.595Z,995.11
2019-03-16T00:27:33.610Z,995.09
2019-03-16T00:28:33.632Z,995
2019-03-16T00:29:33.655Z,995.14
2019-03-16T00:30:33.656Z,995.16
2019-03-16T00:31:33.672Z,995.04
2019-03-16T00:32:33.687Z,995.12
2019-03-16T00:33:33.702Z,994.94
2019-03-16T00:34:33.719Z,995.15
2019-03-16T00:35:33.732Z,995.25
2019-03-16T00:36:33.748Z,995.61
2019-03-16T00:38:33.779Z,995.38
2019-03-16T00:39:33.794Z,995.32
2019-03-16T00:40:33.810Z,995.47
2019-03-16T00:41:33.826Z,995.47
2019-03-16T00:42:33.841Z,995.39
2019-03-16T00:43:33.856Z,995.4
2019-03-16T00:44:33.871Z,995.51
2019-03-16T00:45:33.987Z,995.37
2019-03-16T00:46:33.904Z,995.44
2019-03-16T00:47:33.917Z,995.4
2019-03-16T00:48:33.933Z,995.36
2019-03-16T00:49:33.949Z,995.53
2019-03-16T00:50:33.963Z,995.48
2019-03-16T00:51:33.985Z,995.46
2019-03-16T00:52:33.995Z,995.31
2019-03-16T00:54:34.025Z,995.55
2019-03-16T00:55:34.041Z,995.47
2019-03-16T00:56:34.056Z,995.57
2019-03-16T00:57:34.071Z,995.64
2019-03-16T00:58:34.086Z,995.4
2019-03-16T00:59:34.103Z,995.58
2019-03-16T01:00:34.117Z,995.44
2019-03-16T01:01:34.132Z,995.56
2019-03-16T01:02:34.154Z,995.47
2019-03-16T01:03:34.163Z,995.5
2019-03-16T01:04:34.178Z,995.55
2019-03-16T01:05:34.196Z,995.58
2019-03-16T01:06:34.211Z,995.58
2019-03-16T01:07:34.224Z,995.65
2019-03-16T01:08:34.239Z,995.73
2019-03-16T01:10:34.271Z,995.67
2019-03-16T01:11:34.286Z,995.6
2019-03-16T01:12:34.300Z,995.76
2019-03-16T01:13:34.319Z,995.75
2019-03-16T01:14:34.331Z,995.69
2019-03-16T01:15:34.347Z,995.74
2019-03-16T01:16:34.361Z,995.74
2019-03-16T01:17:34.379Z,995.8
2019-03-16T01:18:34.393Z,995.79
2019-03-16T01:19:34.407Z,995.8
2019-03-16T01:20:34.423Z,995.92
2019-03-16T01:21:34.438Z,995.85
2019-03-16T01:22:34.453Z,995.91
2019-03-16T01:23:34.471Z,995.9
2019-03-16T01:25:34.501Z,995.98
2019-03-16T01:26:34.515Z,995.99
2019-03-16T01:27:34.545Z,995.94
2019-03-16T01:28:34.546Z,995.92
2019-03-16T01:29:34.562Z,995.92
2019-03-16T01:30:34.582Z,995.88
2019-03-16T01:31:34.592Z,996.04
2019-03-16T01:32:40.337Z,996.03
2019-03-16T01:33:34.623Z,996.03
2019-03-16T01:34:34.643Z,995.96
2019-03-16T01:35:34.653Z,995.97
2019-03-16T01:36:34.669Z,996.06
2019-03-16T01:37:34.683Z,995.99
2019-03-16T01:38:34.699Z,996.06
2019-03-16T01:39:34.714Z,996.04
2019-03-16T01:40:34.730Z,996.08
2019-03-16T01:41:34.744Z,996.12
2019-03-16T01:42:34.760Z,996.2
2019-03-16T01:43:34.775Z,996.22
2019-03-16T01:44:34.793Z,996.09
2019-03-16T01:45:34.805Z,996.35
2019-03-16T01:46:34.821Z,996.33
2019-03-16T01:47:34.836Z,996.24
2019-03-16T01:48:34.852Z,996.33
2019-03-16T01:49:34.866Z,996.2
2019-03-16T01:50:34.881Z,996.4
2019-03-16T01:51:34.897Z,996.32
2019-03-16T01:52:34.914Z,996.37
2019-03-16T01:53:34.927Z,996.35
2019-03-16T01:54:34.942Z,996.18
2019-03-16T01:55:34.957Z,996.26
2019-03-16T01:57:34.987Z,996.26
2019-03-16T01:58:35.003Z,996.33
2019-03-16T01:59:35.018Z,996.35
2019-03-16T02:00:35.033Z,996.32
2019-03-16T02:01:35.048Z,996.37
2019-03-16T02:02:35.064Z,996.32
2019-03-16T02:03:35.083Z,996.34
2019-03-16T02:04:35.094Z,996.37
2019-03-16T02:05:35.113Z,996.42
2019-03-16T02:06:35.124Z,996.4
2019-03-16T02:07:35.142Z,996.39
2019-03-16T02:08:35.155Z,996.37
2019-03-16T02:09:35.170Z,996.47
2019-03-16T02:10:35.186Z,996.46
2019-03-16T02:11:35.201Z,996.48
2019-03-16T02:13:35.231Z,996.46
2019-03-16T02:14:35.246Z,996.45
2019-03-16T02:15:35.262Z,996.41
2019-03-16T02:16:35.278Z,996.41
2019-03-16T02:17:35.291Z,996.45
2019-03-16T02:18:35.309Z,996.42
2019-03-16T02:19:36.018Z,996.46
2019-03-16T02:20:35.341Z,996.5
2019-03-16T02:21:35.501Z,996.49
2019-03-16T02:22:35.368Z,996.61
2019-03-16T02:23:35.383Z,996.57
2019-03-16T02:24:35.398Z,996.59
2019-03-16T02:25:35.413Z,996.67
2019-03-16T02:26:35.431Z,996.69
2019-03-16T02:27:35.444Z,996.69
2019-03-16T02:29:35.577Z,996.68
2019-03-16T02:30:35.588Z,996.83
2019-03-16T02:31:35.506Z,996.76
2019-03-16T02:32:35.521Z,996.78
2019-03-16T02:33:35.538Z,996.79
2019-03-16T02:34:35.551Z,996.86
2019-03-16T02:35:35.571Z,996.64
2019-03-16T02:36:35.584Z,996.7
2019-03-16T02:37:35.598Z,996.8
2019-03-16T02:38:35.613Z,996.7
2019-03-16T02:39:35.628Z,996.92
2019-03-16T02:40:35.643Z,996.81
2019-03-16T02:41:35.660Z,996.94
2019-03-16T02:42:35.687Z,996.91
2019-03-16T02:43:35.688Z,997.25
2019-03-16T02:45:35.721Z,997.01
2019-03-16T02:46:35.735Z,997.04
2019-03-16T02:47:35.749Z,997.03
2019-03-16T02:48:35.765Z,996.95
2019-03-16T02:49:35.781Z,997.02
2019-03-16T02:50:35.794Z,997.06
2019-03-16T02:51:35.809Z,997.06
2019-03-16T02:52:35.825Z,997.19
2019-03-16T02:53:35.842Z,997.15
2019-03-16T02:54:35.856Z,997.12
2019-03-16T02:55:35.873Z,997.06
2019-03-16T02:56:35.889Z,997.18
2019-03-16T02:57:35.902Z,997.17
2019-03-16T02:58:35.919Z,997.14
2019-03-16T03:00:35.949Z,997.04
2019-03-16T03:01:35.963Z,997.17
2019-03-16T03:02:35.980Z,997.2
2019-03-16T03:03:35.994Z,997.28
2019-03-16T03:04:36.009Z,997.19
2019-03-16T03:05:36.030Z,997.34
2019-03-16T03:06:36.041Z,997.24
2019-03-16T03:07:36.056Z,997.21
2019-03-16T03:08:36.089Z,997.25
2019-03-16T03:09:36.085Z,997.3
2019-03-16T03:10:36.100Z,997.23
2019-03-16T03:11:36.116Z,997.32
2019-03-16T03:12:36.131Z,997.3
2019-03-16T03:13:36.145Z,997.3
2019-03-16T03:14:36.161Z,997.32
2019-03-16T03:15:36.177Z,997.28
2019-03-16T03:16:36.202Z,997.3
2019-03-16T03:17:36.210Z,997.54
2019-03-16T03:18:36.235Z,997.34
2019-03-16T03:19:36.235Z,997.29
2019-03-16T03:20:36.251Z,997.39
2019-03-16T03:21:36.267Z,997.41
2019-03-16T03:22:36.282Z,997.57
2019-03-16T03:23:36.296Z,997.63
2019-03-16T03:24:36.312Z,997.63
2019-03-16T03:25:36.327Z,997.43
2019-03-16T03:26:36.343Z,997.54
2019-03-16T03:27:36.363Z,997.51
2019-03-16T03:28:36.372Z,997.55
2019-03-16T03:29:36.389Z,997.55
2019-03-16T03:30:36.464Z,997.63
2019-03-16T03:32:36.437Z,997.8
2019-03-16T03:33:56.832Z,997.68
2019-03-16T03:34:36.465Z,997.47
2019-03-16T03:35:36.483Z,997.59
2019-03-16T03:36:36.494Z,997.64
2019-03-16T03:37:36.508Z,997.64
2019-03-16T03:38:36.523Z,997.66
2019-03-16T03:39:36.540Z,997.66
2019-03-16T03:40:36.558Z,997.66
2019-03-16T03:41:36.568Z,997.72
2019-03-16T03:42:36.585Z,997.69
2019-03-16T03:43:36.610Z,997.7
2019-03-16T03:44:36.750Z,997.78
2019-03-16T03:45:36.628Z,997.76
2019-03-16T03:46:36.644Z,997.83
2019-03-16T03:48:36.673Z,997.86
2019-03-16T03:49:36.688Z,997.9
2019-03-16T03:50:36.712Z,997.89
2019-03-16T03:51:36.721Z,997.91
2019-03-16T03:52:36.733Z,997.95
2019-03-16T03:53:40.656Z,997.95
2019-03-16T03:54:36.781Z,997.98
2019-03-16T03:55:36.779Z,997.89
2019-03-16T03:56:36.795Z,998.05
2019-03-16T03:57:36.821Z,997.98
2019-03-16T03:58:36.825Z,998
2019-03-16T03:59:36.841Z,998.15
2019-03-16T04:00:36.853Z,998.11
2019-03-16T04:01:36.872Z,998
2019-03-16T04:02:36.889Z,998.08
2019-03-16T04:04:36.917Z,998.06
2019-03-16T04:05:36.930Z,998.14
2019-03-16T04:06:36.946Z,998.14
2019-03-16T04:07:36.960Z,998.19
2019-03-16T04:08:36.975Z,998.2
2019-03-16T04:09:36.991Z,998.21
2019-03-16T04:10:37.007Z,998.18
2019-03-16T04:11:37.025Z,998.19
2019-03-16T04:12:37.036Z,998.17
2019-03-16T04:13:37.050Z,998.21
2019-03-16T04:14:37.064Z,998.26
2019-03-16T04:15:37.082Z,998.31
2019-03-16T04:16:37.094Z,998.34
2019-03-16T04:17:37.113Z,998.34
2019-03-16T04:18:37.125Z,998.32
2019-03-16T04:20:37.155Z,998.34
2019-03-16T04:21:37.176Z,998.46
2019-03-16T04:22:37.185Z,998.49
2019-03-16T04:23:37.204Z,998.52
2019-03-16T04:24:37.223Z,998.48
2019-03-16T04:25:37.230Z,998.61
2019-03-16T04:26:37.245Z,998.61
2019-03-16T04:27:37.265Z,998.54
2019-03-16T04:28:37.276Z,998.56
2019-03-16T04:29:37.299Z,998.48
2019-03-16T04:30:37.307Z,998.62
2019-03-16T04:31:37.321Z,998.64
2019-03-16T04:32:37.335Z,998.66
2019-03-16T04:33:37.351Z,998.61
2019-03-16T04:35:37.382Z,998.67
2019-03-16T04:36:37.397Z,998.72
2019-03-16T04:37:37.512Z,998.68
2019-03-16T04:38:37.431Z,998.67
2019-03-16T04:39:37.443Z,998.61
2019-03-16T04:40:37.457Z,998.64
2019-03-16T04:41:37.471Z,998.67
2019-03-16T04:42:37.487Z,998.75
2019-03-16T04:43:37.502Z,998.66
2019-03-16T04:44:37.518Z,998.65
2019-03-16T04:45:37.532Z,998.78
2019-03-16T04:46:37.550Z,998.76
2019-03-16T04:47:37.561Z,998.79
2019-03-16T04:48:37.581Z,998.76
2019-03-16T04:49:37.592Z,998.8
2019-03-16T04:50:37.608Z,998.77
2019-03-16T04:51:37.622Z,998.8
2019-03-16T04:52:37.638Z,998.88
2019-03-16T04:53:37.655Z,998.88
2019-03-16T04:54:37.668Z,998.84
2019-03-16T04:55:37.683Z,998.88
2019-03-16T04:56:37.699Z,998.85
2019-03-16T04:57:37.719Z,998.96
2019-03-16T04:58:37.732Z,998.85
2019-03-16T04:59:37.744Z,998.87
2019-03-16T05:00:37.759Z,998.91
2019-03-16T05:01:37.779Z,998.89
2019-03-16T05:02:37.791Z,998.94
2019-03-16T05:03:37.805Z,999.03
2019-03-16T05:04:42.578Z,998.92
2019-03-16T05:05:37.835Z,998.97
2019-03-16T05:07:37.866Z,999.07
2019-03-16T05:08:37.884Z,999.02
2019-03-16T05:09:37.896Z,999.11
2019-03-16T05:10:37.911Z,998.99
2019-03-16T05:11:37.927Z,999.04
2019-03-16T05:12:37.942Z,998.95
2019-03-16T05:13:37.956Z,998.96
2019-03-16T05:14:37.972Z,999.05
2019-03-16T05:15:37.988Z,999.07
2019-03-16T05:16:38.005Z,998.97
2019-03-16T05:17:38.021Z,999.07
2019-03-16T05:18:38.033Z,999.05
2019-03-16T05:19:38.048Z,999.09
2019-03-16T05:20:38.063Z,999.1
2019-03-16T05:21:38.079Z,999.08
2019-03-16T05:23:38.110Z,999.02
2019-03-16T05:24:38.124Z,999.06
2019-03-16T05:25:38.139Z,999.12
2019-03-16T05:26:38.188Z,999.05
2019-03-16T05:27:38.169Z,999.13
2019-03-16T05:28:38.218Z,999.15
2019-03-16T05:29:38.200Z,999.21
2019-03-16T05:30:38.215Z,999.06
2019-03-16T05:31:38.230Z,999.13
2019-03-16T05:32:38.246Z,999.19
2019-03-16T05:33:38.263Z,999.18
2019-03-16T05:34:38.281Z,999.3
2019-03-16T05:35:38.291Z,999.27
2019-03-16T05:36:38.356Z,999.47
2019-03-16T05:37:38.323Z,999.26
2019-03-16T05:39:38.352Z,999.35
2019-03-16T05:40:38.371Z,999.3
2019-03-16T05:41:38.383Z,999.36
2019-03-16T05:42:38.397Z,999.43
2019-03-16T05:43:38.413Z,999.41
2019-03-16T05:44:38.428Z,999.41
2019-03-16T05:45:38.444Z,999.5
2019-03-16T05:46:38.459Z,999.49
2019-03-16T05:47:38.477Z,999.58
2019-03-16T05:48:38.490Z,999.64
2019-03-16T05:49:38.506Z,999.57
2019-03-16T05:50:38.520Z,999.6
2019-03-16T05:51:38.576Z,999.7
2019-03-16T05:52:38.562Z,999.65
2019-03-16T05:53:38.567Z,999.59
2019-03-16T05:55:38.599Z,999.61
2019-03-16T05:56:38.615Z,999.73
2019-03-16T05:57:38.629Z,999.73
2019-03-16T05:58:38.645Z,999.64
2019-03-16T05:59:38.661Z,999.7
2019-03-16T06:00:38.676Z,999.84
2019-03-16T06:01:38.691Z,999.73
2019-03-16T06:02:38.706Z,999.81
2019-03-16T06:03:38.723Z,999.82
2019-03-16T06:04:38.737Z,999.84
2019-03-16T06:05:38.754Z,999.84
2019-03-16T06:06:38.801Z,999.88
2019-03-16T06:07:38.788Z,999.79
2019-03-16T06:08:38.804Z,999.75
2019-03-16T06:10:38.836Z,999.84
2019-03-16T06:11:38.852Z,999.86
2019-03-16T06:12:38.867Z,999.94
2019-03-16T06:13:38.884Z,999.9
2019-03-16T06:14:38.902Z,999.95
2019-03-16T06:15:38.917Z,999.88
2019-03-16T06:16:38.938Z,999.93
2019-03-16T06:17:38.952Z,999.84
2019-03-16T06:18:38.969Z,999.89
2019-03-16T06:19:39.037Z,999.75
2019-03-16T06:20:39.009Z,999.71
2019-03-16T06:21:39.023Z,999.87
2019-03-16T06:22:39.042Z,999.91
2019-03-16T06:23:39.063Z,1000
2019-03-16T06:24:39.078Z,999.97
2019-03-16T06:25:39.098Z,1000.09
2019-03-16T06:26:39.115Z,1000.01
2019-03-16T06:27:39.134Z,1000.07
2019-03-16T06:28:39.155Z,1000.1
2019-03-16T06:29:39.172Z,1000.17
2019-03-16T06:30:39.191Z,1000.18
2019-03-16T06:31:39.211Z,1000.23
2019-03-16T06:32:39.234Z,1000.31
2019-03-16T06:33:39.249Z,1000.29
2019-03-16T06:34:39.269Z,1000.35
2019-03-16T06:35:39.302Z,1000.38
2019-03-16T06:36:39.309Z,1000.41
2019-03-16T06:37:39.328Z,1000.29
2019-03-16T06:38:39.348Z,1000.41
2019-03-16T06:39:39.367Z,1000.46
2019-03-16T06:40:39.387Z,1000.38
2019-03-16T06:42:39.427Z,1000.38
2019-03-16T06:43:39.447Z,1000.42
2019-03-16T06:44:39.466Z,1000.47
2019-03-16T06:45:39.492Z,1000.41
2019-03-16T06:46:39.506Z,1000.57
2019-03-16T06:47:39.525Z,1000.54
2019-03-16T06:48:39.543Z,1000.66
2019-03-16T06:49:39.563Z,1000.56
2019-03-16T06:50:39.582Z,1000.51
2019-03-16T06:51:39.600Z,1000.55
2019-03-16T06:52:39.619Z,1000.59
2019-03-16T06:53:39.638Z,1000.53
2019-03-16T06:54:39.658Z,1000.56
2019-03-16T06:55:39.674Z,1000.55
2019-03-16T06:56:39.693Z,1000.54
2019-03-16T06:58:39.729Z,1000.56
2019-03-16T06:59:39.747Z,1000.58
2019-03-16T07:00:39.815Z,1000.6
2019-03-16T07:01:39.786Z,1000.59
2019-03-16T07:02:39.800Z,1000.69
2019-03-16T07:03:39.818Z,1000.59
2019-03-16T07:04:39.835Z,1000.51
2019-03-16T07:05:39.857Z,1000.69
2019-03-16T07:06:39.921Z,1000.83
2019-03-16T07:07:39.889Z,1000.74
2019-03-16T07:08:39.906Z,1000.64
2019-03-16T07:09:39.925Z,1000.72
2019-03-16T07:10:39.942Z,1000.73
2019-03-16T07:11:39.964Z,1000.65
2019-03-16T07:12:39.982Z,1000.74
2019-03-16T07:14:40.014Z,1000.76
2019-03-16T07:15:40.032Z,1001.02
2019-03-16T07:16:40.050Z,1000.91
2019-03-16T07:17:40.068Z,1000.93
2019-03-16T07:18:40.087Z,1000.77
2019-03-16T07:19:40.105Z,1001.02
2019-03-16T07:20:40.224Z,1001.1
2019-03-16T07:21:40.141Z,1000.82
2019-03-16T07:22:40.160Z,1000.75
2019-03-16T07:23:40.180Z,1000.84
2019-03-16T07:24:40.199Z,1000.88
2019-03-16T07:25:40.217Z,1000.93
2019-03-16T07:26:40.236Z,1000.97
2019-03-16T07:27:40.255Z,1000.98
2019-03-16T07:28:40.273Z,1000.96
2019-03-16T07:30:40.311Z,1001.04
2019-03-16T07:31:40.330Z,1001.06
2019-03-16T07:32:40.349Z,1001.1
2019-03-16T07:33:40.367Z,1001.04
2019-03-16T07:34:40.385Z,1001.03
2019-03-16T07:35:40.402Z,1001.08
2019-03-16T07:36:40.421Z,1001
2019-03-16T07:37:40.444Z,1001.14
2019-03-16T07:38:40.461Z,1001.1
2019-03-16T07:39:40.476Z,1001.17
2019-03-16T07:40:40.495Z,1001.2
2019-03-16T07:41:40.513Z,1001.2
2019-03-16T07:42:40.573Z,1001.22
2019-03-16T07:43:40.550Z,1001.25
2019-03-16T07:45:40.587Z,1001.24
2019-03-16T07:46:40.606Z,1001.14
2019-03-16T07:47:40.623Z,1001.13
2019-03-16T07:48:40.643Z,1001.18
2019-03-16T07:49:40.662Z,1001.26
2019-03-16T07:50:40.679Z,1001.3
2019-03-16T07:51:40.697Z,1001.31
2019-03-16T07:52:40.721Z,1001.31
2019-03-16T07:53:40.734Z,1001.29
2019-03-16T07:54:40.753Z,1001.23
2019-03-16T07:55:42.188Z,1001.24
2019-03-16T07:56:40.789Z,1001.29
2019-03-16T07:57:41.127Z,1001.26
2019-03-16T07:58:40.826Z,1001.25
2019-03-16T07:59:40.844Z,1001.27
2019-03-16T08:00:40.863Z,1001.31
2019-03-16T08:01:40.881Z,1001.25
2019-03-16T08:02:40.899Z,1001.28
2019-03-16T08:03:40.917Z,1001.33
2019-03-16T08:04:43.452Z,1001.35
2019-03-16T08:05:40.953Z,1001.33
2019-03-16T08:06:40.972Z,1001.37
2019-03-16T08:07:40.989Z,1001.31
2019-03-16T08:08:41.007Z,1001.33
2019-03-16T08:09:41.025Z,1001.42
2019-03-16T08:10:41.043Z,1001.4
2019-03-16T08:11:41.061Z,1001.36
2019-03-16T08:12:41.079Z,1001.42
2019-03-16T08:13:41.097Z,1001.43
2019-03-16T08:14:41.116Z,1001.38
2019-03-16T08:15:41.133Z,1001.43
2019-03-16T08:17:41.170Z,1001.39
2019-03-16T08:18:41.188Z,1001.42
2019-03-16T08:19:41.215Z,1001.48
2019-03-16T08:20:41.224Z,1001.51
2019-03-16T08:21:41.242Z,1001.49
2019-03-16T08:22:41.264Z,1001.53
2019-03-16T08:23:41.280Z,1001.56
2019-03-16T08:24:41.297Z,1001.54
2019-03-16T08:25:41.399Z,1001.66
2019-03-16T08:26:41.335Z,1001.65
2019-03-16T08:27:53.269Z,1001.65
2019-03-16T08:28:41.370Z,1001.72
2019-03-16T08:29:41.390Z,1001.68
2019-03-16T08:30:41.455Z,1001.74
2019-03-16T08:31:41.424Z,1001.84
2019-03-16T08:33:41.462Z,1001.77
2019-03-16T08:34:41.479Z,1001.77
2019-03-16T08:35:41.497Z,1001.88
2019-03-16T08:36:41.566Z,1001.82
2019-03-16T08:37:41.535Z,1001.77
2019-03-16T08:38:41.552Z,1001.73
2019-03-16T08:39:41.571Z,1001.75
2019-03-16T08:40:41.589Z,1001.82
2019-03-16T08:41:41.608Z,1001.8
2019-03-16T08:42:41.625Z,1001.83
2019-03-16T08:43:41.643Z,1001.71
2019-03-16T08:44:41.662Z,1001.8
2019-03-16T08:45:41.680Z,1001.74
2019-03-16T08:46:41.698Z,1001.72
2019-03-16T08:47:41.802Z,1001.75
2019-03-16T08:49:41.752Z,1001.78
2019-03-16T08:50:41.770Z,1001.66
2019-03-16T08:51:41.789Z,1001.75
2019-03-16T08:52:41.807Z,1001.73
2019-03-16T08:53:41.825Z,1001.78
2019-03-16T08:54:41.843Z,1001.8
2019-03-16T08:55:41.862Z,1001.79
2019-03-16T08:56:41.879Z,1001.85
2019-03-16T08:57:41.899Z,1001.87
2019-03-16T08:58:41.917Z,1001.84
2019-03-16T08:59:41.935Z,1001.83
2019-03-16T09:00:41.953Z,1001.87
2019-03-16T09:01:41.973Z,1001.84
2019-03-16T09:02:41.999Z,1001.8
2019-03-16T09:03:43.729Z,1001.77
2019-03-16T09:05:42.046Z,1001.83
2019-03-16T09:06:42.065Z,1001.84
2019-03-16T09:07:42.137Z,1001.73
2019-03-16T09:08:42.103Z,1001.73
2019-03-16T09:09:42.121Z,1001.8
2019-03-16T09:10:42.139Z,1001.84
2019-03-16T09:11:42.158Z,1001.74
2019-03-16T09:12:53.893Z,1001.99
2019-03-16T09:13:42.197Z,1001.8
2019-03-16T09:14:42.215Z,1001.79
2019-03-16T09:15:42.234Z,1001.83
2019-03-16T09:16:42.253Z,1001.83
2019-03-16T09:17:42.272Z,1001.77
2019-03-16T09:18:42.292Z,1001.81
2019-03-16T09:20:42.330Z,1001.8
2019-03-16T09:21:42.348Z,1001.87
2019-03-16T09:22:42.370Z,1001.8
2019-03-16T09:23:42.387Z,1001.77
2019-03-16T09:24:42.406Z,1001.82
2019-03-16T09:25:42.429Z,1001.82
2019-03-16T09:26:42.443Z,1001.75
2019-03-16T09:27:42.463Z,1001.77
2019-03-16T09:28:42.480Z,1001.75
2019-03-16T09:29:42.500Z,1001.73
2019-03-16T09:30:42.521Z,1001.78
2019-03-16T09:31:42.539Z,1001.82
2019-03-16T09:32:42.558Z,1001.9
2019-03-16T09:33:42.576Z,1001.88
2019-03-16T09:34:42.596Z,1001.85
2019-03-16T09:35:42.618Z,1001.87
2019-03-16T09:36:42.637Z,1001.89
2019-03-16T09:37:42.655Z,1001.9
2019-03-16T09:38:42.675Z,1001.86
2019-03-16T09:39:42.691Z,1001.83
2019-03-16T09:40:42.711Z,1001.88
2019-03-16T09:41:42.732Z,1001.82
2019-03-16T09:42:42.750Z,1001.93
2019-03-16T09:43:42.769Z,1001.96
2019-03-16T09:44:42.788Z,1001.92
2019-03-16T09:45:42.809Z,1001.96
2019-03-16T09:46:42.829Z,1001.93
2019-03-16T09:47:42.846Z,1001.89
2019-03-16T09:48:42.866Z,1001.92
2019-03-16T09:49:42.887Z,1001.95
2019-03-16T09:50:42.905Z,1002.03
2019-03-16T09:52:42.944Z,1001.99
2019-03-16T09:53:42.964Z,1002.01
2019-03-16T09:54:42.983Z,1001.91
2019-03-16T09:55:43.003Z,1001.97
2019-03-16T09:56:43.023Z,1001.94
2019-03-16T09:57:43.047Z,1001.93
2019-03-16T09:58:43.066Z,1001.89
2019-03-16T09:59:43.083Z,1001.96
2019-03-16T10:00:43.102Z,1001.86
2019-03-16T10:01:43.171Z,1001.97
2019-03-16T10:02:43.142Z,1001.88
2019-03-16T10:03:43.163Z,1002
2019-03-16T10:04:43.182Z,1002.02
2019-03-16T10:05:43.200Z,1001.9
2019-03-16T10:06:43.220Z,1001.96
2019-03-16T10:08:43.272Z,1001.93
2019-03-16T10:09:43.279Z,1001.93
2019-03-16T10:10:43.300Z,1001.97
2019-03-16T10:11:43.319Z,1001.98
2019-03-16T10:12:43.338Z,1001.98
2019-03-16T10:13:43.358Z,1001.98
2019-03-16T10:14:43.379Z,1001.96
2019-03-16T10:15:43.398Z,1001.94
2019-03-16T10:16:43.417Z,1002.01
2019-03-16T10:17:43.440Z,1001.98
2019-03-16T10:18:43.458Z,1002
2019-03-16T10:19:43.479Z,1001.95
2019-03-16T10:20:43.498Z,1001.98
2019-03-16T10:21:43.518Z,1001.95
2019-03-16T10:22:43.539Z,1001.98
2019-03-16T10:24:43.580Z,1001.94
2019-03-16T10:25:43.599Z,1001.9
2019-03-16T10:26:43.619Z,1001.75
2019-03-16T10:27:43.638Z,1001.8
2019-03-16T10:28:44.100Z,1001.83
2019-03-16T10:29:43.678Z,1001.78
2019-03-16T10:30:43.699Z,1001.82
2019-03-16T10:31:43.718Z,1001.8
2019-03-16T10:32:43.744Z,1001.82
2019-03-16T10:33:43.760Z,1001.84
2019-03-16T10:34:43.778Z,1001.83
2019-03-16T10:35:43.799Z,1001.85
2019-03-16T10:36:43.818Z,1001.85
2019-03-16T10:37:43.838Z,1001.91
2019-03-16T10:38:43.858Z,1001.88
2019-03-16T10:40:43.898Z,1001.9
2019-03-16T10:41:43.918Z,1001.85
2019-03-16T10:42:43.938Z,1001.91
2019-03-16T10:43:43.958Z,1001.92
2019-03-16T10:44:43.978Z,1001.88
2019-03-16T10:45:43.999Z,1001.89
2019-03-16T10:46:44.016Z,1001.84
2019-03-16T10:47:44.040Z,1001.87
2019-03-16T10:48:44.057Z,1001.9
2019-03-16T10:49:44.078Z,1001.93
2019-03-16T10:50:44.096Z,1002
2019-03-16T10:51:44.117Z,1001.91
2019-03-16T10:52:44.137Z,1002.01
2019-03-16T10:53:44.156Z,1001.98
2019-03-16T10:55:44.197Z,1002.02
2019-03-16T10:56:44.216Z,1002.06
2019-03-16T10:57:44.242Z,1002.01
2019-03-16T10:58:55.915Z,1002.01
2019-03-16T10:59:44.276Z,1002.1
2019-03-16T11:00:44.295Z,1002.02
2019-03-16T11:01:44.315Z,1001.97
2019-03-16T11:02:44.333Z,1002.06
2019-03-16T11:03:44.353Z,1001.93
2019-03-16T11:04:44.372Z,1002.05
2019-03-16T11:05:44.392Z,1002.04
2019-03-16T11:06:44.412Z,1002.07
2019-03-16T11:07:44.430Z,1002.05
2019-03-16T11:08:44.451Z,1002.15
2019-03-16T11:09:44.471Z,1001.96
2019-03-16T11:10:44.490Z,1002.08
2019-03-16T11:11:44.509Z,1002.05
2019-03-16T11:12:44.536Z,1002.08
2019-03-16T11:13:44.551Z,1002.03
2019-03-16T11:14:44.568Z,1001.99
2019-03-16T11:15:44.587Z,1002.02
2019-03-16T11:16:44.607Z,1002.02
2019-03-16T11:17:44.630Z,1001.98
2019-03-16T11:18:44.646Z,1002
2019-03-16T11:19:44.665Z,1001.94
2019-03-16T11:20:44.684Z,1001.89
2019-03-16T11:21:44.705Z,1001.82
2019-03-16T11:22:44.726Z,1001.86
2019-03-16T11:23:44.764Z,1001.78
2019-03-16T11:24:44.763Z,1001.8
2019-03-16T11:25:44.783Z,1001.86
2019-03-16T11:27:44.833Z,1001.83
2019-03-16T11:28:44.843Z,1001.7
2019-03-16T11:29:44.858Z,1001.77
2019-03-16T11:30:44.878Z,1001.81
2019-03-16T11:31:44.906Z,1001.83
2019-03-16T11:32:44.917Z,1001.78
2019-03-16T11:33:44.937Z,1001.84
2019-03-16T11:34:44.955Z,1001.89
2019-03-16T11:35:44.974Z,1001.91
2019-03-16T11:36:45.043Z,1001.82
2019-03-16T11:37:45.064Z,1001.83
2019-03-16T11:38:45.032Z,1001.78
2019-03-16T11:39:45.051Z,1001.82
2019-03-16T11:40:45.069Z,1001.86
2019-03-16T11:41:45.088Z,1001.84
2019-03-16T11:43:45.127Z,1001.93
2019-03-16T11:44:45.145Z,1001.89
2019-03-16T11:45:45.164Z,1001.93
2019-03-16T11:46:45.188Z,1001.93
2019-03-16T11:47:45.200Z,1001.88
2019-03-16T11:48:45.223Z,1001.89
2019-03-16T11:49:45.238Z,1001.93
2019-03-16T11:50:45.260Z,1001.97
2019-03-16T11:51:45.278Z,1001.92
2019-03-16T11:52:45.294Z,1001.89
2019-03-16T11:53:45.313Z,1001.82
2019-03-16T11:54:45.332Z,1001.93
2019-03-16T11:55:45.351Z,1001.9
2019-03-16T11:56:45.369Z,1001.92
2019-03-16T11:57:45.388Z,1001.91
2019-03-16T11:59:45.425Z,1001.99
2019-03-16T12:00:45.444Z,1001.86
2019-03-16T12:01:45.464Z,1001.9
2019-03-16T12:02:45.484Z,1001.86
2019-03-16T12:03:45.500Z,1001.81
2019-03-16T12:04:45.518Z,1001.86
2019-03-16T12:05:45.537Z,1001.88
2019-03-16T12:06:45.554Z,1001.84
2019-03-16T12:07:45.572Z,1001.88
2019-03-16T12:08:45.601Z,1001.83
2019-03-16T12:09:45.613Z,1001.87
2019-03-16T12:10:45.628Z,1001.9
2019-03-16T12:11:45.667Z,1001.91
2019-03-16T12:12:45.665Z,1001.94
2019-03-16T12:13:45.683Z,1001.98
2019-03-16T12:15:45.720Z,1002.03
2019-03-16T12:16:45.739Z,1002.06
2019-03-16T12:17:45.756Z,1001.95
2019-03-16T12:18:45.776Z,1002.08
2019-03-16T12:19:45.794Z,1001.97
2019-03-16T12:20:45.811Z,1001.99
2019-03-16T12:21:45.835Z,1001.99
2019-03-16T12:22:45.849Z,1002.02
2019-03-16T12:23:45.873Z,1002.02
2019-03-16T12:24:45.986Z,1002.03
2019-03-16T12:25:45.904Z,1001.97
2019-03-16T12:26:45.923Z,1001.99
2019-03-16T12:27:45.944Z,1001.96
2019-03-16T12:28:45.960Z,1002.01
2019-03-16T12:30:45.997Z,1001.99
2019-03-16T12:31:46.016Z,1002.07
2019-03-16T12:32:46.095Z,1002.04
2019-03-16T12:33:46.052Z,1002.05
2019-03-16T12:34:46.072Z,1002.08
2019-03-16T12:35:46.089Z,1002.06
2019-03-16T12:36:46.107Z,1002.06
2019-03-16T12:37:46.128Z,1001.96
2019-03-16T12:38:46.143Z,1001.94
2019-03-16T12:39:46.161Z,1002.07
2019-03-16T12:40:46.181Z,1002.01
2019-03-16T12:41:46.201Z,1002.03
2019-03-16T12:42:46.219Z,1002
2019-03-16T12:43:46.234Z,1002.02
2019-03-16T12:44:46.254Z,1001.98
2019-03-16T12:45:46.272Z,1001.96
2019-03-16T12:46:46.290Z,1001.97
2019-03-16T12:47:46.308Z,1001.91
2019-03-16T12:48:46.326Z,1001.93
2019-03-16T12:49:46.344Z,1001.95
2019-03-16T12:50:46.412Z,1001.91
2019-03-16T12:51:46.380Z,1001.92
2019-03-16T12:52:46.399Z,1001.92
2019-03-16T12:53:46.416Z,1001.92
2019-03-16T12:54:46.434Z,1001.93
2019-03-16T12:55:46.455Z,1001.89
2019-03-16T12:56:46.472Z,1001.89
2019-03-16T12:57:47.943Z,1001.83
2019-03-16T12:58:46.507Z,1001.8
2019-03-16T12:59:47.361Z,1001.81